sensor_id;sensor_type;location;lat;lon;timestamp;pressure;altitude;pressure_sealevel;temperature;humidity
10462;BME280;5278;42.656;23.374;2023-04-25T00:00:47;93915.06;;;13.35;100.00
10462;BME280;5278;42.656;23.374;2023-04-25T00:03:14;93907.66;;;13.39;100.00
10462;BME280;5278;42.656;23.374;2023-04-25T00:05:41;93899.38;;;13.42;100.00
10462;BME280;5278;42.656;23.374;2023-04-25T00:08:08;93900.19;;;13.43;100.00
10462;BME280;5278;42.656;23.374;2023-04-25T00:10:35;93892.16;;;13.44;100.00
10462;BME280;5278;42.656;23.374;2023-04-25T00:13:03;93886.94;;;13.44;100.00
10462;BME280;5278;42.656;23.374;2023-04-25T00:15:30;93880.31;;;13.42;100.00
10462;BME280;5278;42.656;23.374;2023-04-25T00:17:57;93876.56;;;13.31;100.00
10462;BME280;5278;42.656;23.374;2023-04-25T00:20:24;93874.66;;;13.20;100.00
10462;BME280;5278;42.656;23.374;2023-04-25T00:22:51;93870.25;;;13.14;100.00
10462;BME280;5278;42.656;23.374;2023-04-25T00:25:19;93883.91;;;13.03;100.00
10462;BME280;5278;42.656;23.374;2023-04-25T00:27:45;93857.31;;;12.87;100.00
10462;BME280;5278;42.656;23.374;2023-04-25T00:30:14;93858.56;;;12.78;100.00
10462;BME280;5278;42.656;23.374;2023-04-25T00:32:41;93852.38;;;12.66;100.00
10462;BME280;5278;42.656;23.374;2023-04-25T00:35:09;93855.97;;;12.72;100.00
10462;BME280;5278;42.656;23.374;2023-04-25T00:37:36;93849.59;;;12.61;100.00
10462;BME280;5278;42.656;23.374;2023-04-25T00:40:06;93851.88;;;12.44;100.00
10462;BME280;5278;42.656;23.374;2023-04-25T00:42:33;93750.84;;;11.69;100.00
10462;BME280;5278;42.656;23.374;2023-04-25T00:45:01;93837.28;;;12.24;100.00
10462;BME280;5278;42.656;23.374;2023-04-25T00:47:29;93838.50;;;12.15;100.00
10462;BME280;5278;42.656;23.374;2023-04-25T00:49:56;93832.31;;;12.09;100.00
10462;BME280;5278;42.656;23.374;2023-04-25T00:52:23;93839.31;;;12.08;100.00
10462;BME280;5278;42.656;23.374;2023-04-25T00:54:50;93835.09;;;12.01;100.00
10462;BME280;5278;42.656;23.374;2023-04-25T00:57:17;93829.69;;;12.02;100.00
10462;BME280;5278;42.656;23.374;2023-04-25T00:59:45;93830.31;;;12.04;100.00
10462;BME280;5278;42.656;23.374;2023-04-25T01:02:12;93827.09;;;12.02;100.00
10462;BME280;5278;42.656;23.374;2023-04-25T01:04:41;93833.31;;;12.01;100.00
10462;BME280;5278;42.656;23.374;2023-04-25T01:07:08;93821.66;;;12.11;100.00
10462;BME280;5278;42.656;23.374;2023-04-25T01:09:35;93819.06;;;12.17;100.00
10462;BME280;5278;42.656;23.374;2023-04-25T01:12:02;93823.66;;;12.22;100.00
10462;BME280;5278;42.656;23.374;2023-04-25T01:14:29;93812.78;;;12.38;100.00
10462;BME280;5278;42.656;23.374;2023-04-25T01:16:56;93806.94;;;12.49;100.00
10462;BME280;5278;42.656;23.374;2023-04-25T01:19:23;93815.94;;;12.60;100.00
10462;BME280;5278;42.656;23.374;2023-04-25T01:21:52;93795.44;;;12.70;100.00
10462;BME280;5278;42.656;23.374;2023-04-25T01:24:19;93799.06;;;12.62;100.00
10462;BME280;5278;42.656;23.374;2023-04-25T01:26:45;93787.03;;;12.61;100.00
10462;BME280;5278;42.656;23.374;2023-04-25T01:29:15;93801.47;;;12.64;100.00
10462;BME280;5278;42.656;23.374;2023-04-25T01:31:42;93793.69;;;12.57;100.00
10462;BME280;5278;42.656;23.374;2023-04-25T01:34:10;93778.66;;;12.59;100.00
10462;BME280;5278;42.656;23.374;2023-04-25T01:36:37;93788.44;;;12.64;100.00
10462;BME280;5278;42.656;23.374;2023-04-25T01:39:05;93794.28;;;12.59;100.00
10462;BME280;5278;42.656;23.374;2023-04-25T01:41:33;93804.47;;;12.61;100.00
10462;BME280;5278;42.656;23.374;2023-04-25T01:44:01;93813.09;;;12.68;100.00
10462;BME280;5278;42.656;23.374;2023-04-25T01:46:28;93805.03;;;12.76;100.00
10462;BME280;5278;42.656;23.374;2023-04-25T01:48:56;93707.91;;;12.18;100.00
10462;BME280;5278;42.656;23.374;2023-04-25T01:51:22;93803.19;;;12.83;100.00
10462;BME280;5278;42.656;23.374;2023-04-25T01:53:49;93782.59;;;12.75;100.00
10462;BME280;5278;42.656;23.374;2023-04-25T01:56:19;93741.88;;;12.36;100.00
10462;BME280;5278;42.656;23.374;2023-04-25T01:58:46;93816.94;;;12.97;100.00
10462;BME280;5278;42.656;23.374;2023-04-25T02:01:12;93807.69;;;13.01;100.00
10462;BME280;5278;42.656;23.374;2023-04-25T02:03:39;93809.72;;;12.99;100.00
10462;BME280;5278;42.656;23.374;2023-04-25T02:06:06;93807.75;;;12.94;100.00
10462;BME280;5278;42.656;23.374;2023-04-25T02:08:33;93814.78;;;12.93;100.00
10462;BME280;5278;42.656;23.374;2023-04-25T02:11:00;93713.38;;;12.41;100.00
10462;BME280;5278;42.656;23.374;2023-04-25T02:13:30;93803.09;;;12.96;100.00
10462;BME280;5278;42.656;23.374;2023-04-25T02:15:57;93796.09;;;12.97;100.00
10462;BME280;5278;42.656;23.374;2023-04-25T02:18:24;93794.28;;;12.97;100.00
10462;BME280;5278;42.656;23.374;2023-04-25T02:20:51;93701.34;;;12.46;100.00
10462;BME280;5278;42.656;23.374;2023-04-25T02:23:18;93792.91;;;12.94;100.00
10462;BME280;5278;42.656;23.374;2023-04-25T02:25:45;93778.06;;;12.95;100.00
10462;BME280;5278;42.656;23.374;2023-04-25T02:28:12;93730.50;;;12.68;100.00
10462;BME280;5278;42.656;23.374;2023-04-25T02:30:40;93766.03;;;12.94;100.00
10462;BME280;5278;42.656;23.374;2023-04-25T02:33:07;93770.28;;;12.88;100.00
10462;BME280;5278;42.656;23.374;2023-04-25T02:35:34;93774.69;;;12.88;100.00
10462;BME280;5278;42.656;23.374;2023-04-25T02:38:01;93763.88;;;12.84;100.00
10462;BME280;5278;42.656;23.374;2023-04-25T02:40:28;93769.50;;;12.81;100.00
10462;BME280;5278;42.656;23.374;2023-04-25T02:42:55;93766.31;;;12.79;100.00
10462;BME280;5278;42.656;23.374;2023-04-25T02:45:22;93744.53;;;12.67;100.00
10462;BME280;5278;42.656;23.374;2023-04-25T02:47:50;93766.91;;;12.81;100.00
10462;BME280;5278;42.656;23.374;2023-04-25T02:50:17;93771.31;;;12.81;100.00
10462;BME280;5278;42.656;23.374;2023-04-25T02:52:44;93765.72;;;12.77;100.00
10462;BME280;5278;42.656;23.374;2023-04-25T02:55:12;93759.34;;;12.73;100.00
10462;BME280;5278;42.656;23.374;2023-04-25T02:57:39;93747.69;;;12.76;100.00
10462;BME280;5278;42.656;23.374;2023-04-25T03:00:07;93749.09;;;12.72;100.00
10462;BME280;5278;42.656;23.374;2023-04-25T03:02:34;93564.81;;;11.47;100.00
10462;BME280;5278;42.656;23.374;2023-04-25T03:05:02;93751.75;;;12.65;100.00
10462;BME280;5278;42.656;23.374;2023-04-25T03:07:30;93758.97;;;12.63;100.00
10462;BME280;5278;42.656;23.374;2023-04-25T03:09:57;93746.97;;;12.62;100.00
10462;BME280;5278;42.656;23.374;2023-04-25T03:12:23;93747.34;;;12.66;100.00
10462;BME280;5278;42.656;23.374;2023-04-25T03:14:50;93749.31;;;12.70;100.00
10462;BME280;5278;42.656;23.374;2023-04-25T03:17:17;93741.28;;;12.72;100.00
10462;BME280;5278;42.656;23.374;2023-04-25T03:19:44;93647.84;;;12.06;100.00
10462;BME280;5278;42.656;23.374;2023-04-25T03:22:12;93753.78;;;12.63;100.00
10462;BME280;5278;42.656;23.374;2023-04-25T03:24:39;93756.19;;;12.65;100.00
10462;BME280;5278;42.656;23.374;2023-04-25T03:27:06;93756.75;;;12.67;100.00
10462;BME280;5278;42.656;23.374;2023-04-25T03:29:33;93756.94;;;12.72;100.00
10462;BME280;5278;42.656;23.374;2023-04-25T03:32:00;93747.50;;;12.71;100.00
10462;BME280;5278;42.656;23.374;2023-04-25T03:34:26;93744.28;;;12.75;100.00
10462;BME280;5278;42.656;23.374;2023-04-25T03:36:54;93744.06;;;12.77;100.00
10462;BME280;5278;42.656;23.374;2023-04-25T03:39:22;93643.22;;;12.15;100.00
10462;BME280;5278;42.656;23.374;2023-04-25T03:41:49;93740.81;;;12.81;100.00
10462;BME280;5278;42.656;23.374;2023-04-25T03:44:15;93745.25;;;12.81;100.00
10462;BME280;5278;42.656;23.374;2023-04-25T03:46:42;93741.22;;;12.85;100.00
10462;BME280;5278;42.656;23.374;2023-04-25T03:49:09;93740.25;;;12.79;100.00
10462;BME280;5278;42.656;23.374;2023-04-25T03:51:36;93755.91;;;12.79;100.00
10462;BME280;5278;42.656;23.374;2023-04-25T03:54:03;93747.22;;;12.85;100.00
10462;BME280;5278;42.656;23.374;2023-04-25T03:56:31;93743.94;;;12.97;100.00
10462;BME280;5278;42.656;23.374;2023-04-25T03:58:58;93739.16;;;12.93;100.00
10462;BME280;5278;42.656;23.374;2023-04-25T04:01:25;93721.94;;;12.86;100.00
10462;BME280;5278;42.656;23.374;2023-04-25T04:03:52;93756.88;;;13.16;100.00
10462;BME280;5278;42.656;23.374;2023-04-25T04:06:19;93731.97;;;13.45;100.00
10462;BME280;5278;42.656;23.374;2023-04-25T04:08:46;93735.78;;;13.67;100.00
10462;BME280;5278;42.656;23.374;2023-04-25T04:11:13;93748.50;;;13.82;98.90
10462;BME280;5278;42.656;23.374;2023-04-25T04:13:41;93660.16;;;13.43;96.86
10462;BME280;5278;42.656;23.374;2023-04-25T04:16:08;93750.97;;;14.32;94.63
10462;BME280;5278;42.656;23.374;2023-04-25T04:18:35;93759.50;;;14.45;93.10
10462;BME280;5278;42.656;23.374;2023-04-25T04:21:02;93766.25;;;14.53;92.58
10462;BME280;5278;42.656;23.374;2023-04-25T04:23:29;93767.88;;;14.65;92.35
10462;BME280;5278;42.656;23.374;2023-04-25T04:25:56;93758.38;;;14.71;90.14
10462;BME280;5278;42.656;23.374;2023-04-25T04:28:23;93739.38;;;14.64;90.03
10462;BME280;5278;42.656;23.374;2023-04-25T04:30:52;93732.78;;;14.43;90.90
10462;BME280;5278;42.656;23.374;2023-04-25T04:33:18;93748.03;;;14.28;92.24
10462;BME280;5278;42.656;23.374;2023-04-25T04:35:46;93759.03;;;14.30;90.86
10462;BME280;5278;42.656;23.374;2023-04-25T04:38:14;93680.47;;;13.77;90.78
10462;BME280;5278;42.656;23.374;2023-04-25T04:40:41;93749.34;;;14.37;90.58
10462;BME280;5278;42.656;23.374;2023-04-25T04:43:08;93709.56;;;13.99;90.46
10462;BME280;5278;42.656;23.374;2023-04-25T04:45:36;93736.69;;;13.98;91.47
10462;BME280;5278;42.656;23.374;2023-04-25T04:48:05;93749.97;;;13.96;91.88
10462;BME280;5278;42.656;23.374;2023-04-25T04:50:32;93758.00;;;13.95;91.14
10462;BME280;5278;42.656;23.374;2023-04-25T04:52:59;93750.16;;;13.95;90.74
10462;BME280;5278;42.656;23.374;2023-04-25T04:55:26;93747.66;;;13.88;91.42
10462;BME280;5278;42.656;23.374;2023-04-25T04:57:53;93669.53;;;13.25;91.79
10462;BME280;5278;42.656;23.374;2023-04-25T05:00:20;93763.81;;;13.97;91.97
10462;BME280;5278;42.656;23.374;2023-04-25T05:02:47;93771.38;;;14.05;91.41
10462;BME280;5278;42.656;23.374;2023-04-25T05:05:15;93768.75;;;14.05;91.11
10462;BME280;5278;42.656;23.374;2023-04-25T05:07:42;93757.28;;;13.88;91.84
10462;BME280;5278;42.656;23.374;2023-04-25T05:10:11;93769.03;;;13.78;92.89
10462;BME280;5278;42.656;23.374;2023-04-25T05:12:38;93771.03;;;13.76;94.15
10462;BME280;5278;42.656;23.374;2023-04-25T05:15:05;93773.66;;;13.76;95.39
10462;BME280;5278;42.656;23.374;2023-04-25T05:17:32;93772.81;;;13.83;96.21
10462;BME280;5278;42.656;23.374;2023-04-25T05:20:00;93787.75;;;13.94;96.19
10462;BME280;5278;42.656;23.374;2023-04-25T05:22:28;93794.88;;;14.05;96.73
10462;BME280;5278;42.656;23.374;2023-04-25T05:24:55;93794.31;;;14.21;95.82
10462;BME280;5278;42.656;23.374;2023-04-25T05:27:22;93791.44;;;14.29;96.13
10462;BME280;5278;42.656;23.374;2023-04-25T05:29:49;93775.75;;;14.29;94.51
10462;BME280;5278;42.656;23.374;2023-04-25T05:32:15;93777.91;;;14.14;93.83
10462;BME280;5278;42.656;23.374;2023-04-25T05:34:43;93686.75;;;13.51;94.00
10462;BME280;5278;42.656;23.374;2023-04-25T05:37:09;93774.47;;;13.95;94.20
10462;BME280;5278;42.656;23.374;2023-04-25T05:39:38;93781.31;;;13.96;94.94
10462;BME280;5278;42.656;23.374;2023-04-25T05:42:05;93641.28;;;14.13;95.96
10462;BME280;5278;42.656;23.374;2023-04-25T05:44:31;93748.72;;;16.01;86.34
10462;BME280;5278;42.656;23.374;2023-04-25T05:46:58;93772.13;;;17.23;78.34
10462;BME280;5278;42.656;23.374;2023-04-25T05:49:25;93772.81;;;17.96;73.42
10462;BME280;5278;42.656;23.374;2023-04-25T05:51:52;93774.63;;;18.51;70.22
10462;BME280;5278;42.656;23.374;2023-04-25T05:54:19;93785.00;;;19.01;66.94
10462;BME280;5278;42.656;23.374;2023-04-25T05:56:47;93791.19;;;19.44;64.96
10462;BME280;5278;42.656;23.374;2023-04-25T05:59:14;93783.31;;;19.70;63.42
10462;BME280;5278;42.656;23.374;2023-04-25T06:01:41;93783.75;;;19.94;62.04
10462;BME280;5278;42.656;23.374;2023-04-25T06:04:08;93763.34;;;20.16;60.27
10462;BME280;5278;42.656;23.374;2023-04-25T06:06:35;93776.88;;;20.30;59.42
10462;BME280;5278;42.656;23.374;2023-04-25T06:09:02;93770.72;;;20.56;57.63
10462;BME280;5278;42.656;23.374;2023-04-25T06:11:29;93773.44;;;20.72;56.34
10462;BME280;5278;42.656;23.374;2023-04-25T06:13:57;93773.44;;;20.72;56.43
10462;BME280;5278;42.656;23.374;2023-04-25T06:16:24;93682.31;;;20.07;55.79
10462;BME280;5278;42.656;23.374;2023-04-25T06:18:52;93770.25;;;20.70;55.99
10462;BME280;5278;42.656;23.374;2023-04-25T06:21:18;93771.81;;;20.66;55.95
10462;BME280;5278;42.656;23.374;2023-04-25T06:23:45;93757.50;;;20.51;55.93
10462;BME280;5278;42.656;23.374;2023-04-25T06:26:12;93764.91;;;20.59;55.84
10462;BME280;5278;42.656;23.374;2023-04-25T06:28:39;93768.91;;;20.62;55.58
10462;BME280;5278;42.656;23.374;2023-04-25T06:31:07;93772.81;;;20.54;55.77
10462;BME280;5278;42.656;23.374;2023-04-25T06:33:34;93771.25;;;20.63;54.81
10462;BME280;5278;42.656;23.374;2023-04-25T06:36:01;93773.09;;;20.63;54.90
10462;BME280;5278;42.656;23.374;2023-04-25T06:38:28;93776.84;;;20.77;54.22
10462;BME280;5278;42.656;23.374;2023-04-25T06:40:55;93769.84;;;21.08;53.07
10462;BME280;5278;42.656;23.374;2023-04-25T06:43:22;93757.78;;;21.47;51.12
10462;BME280;5278;42.656;23.374;2023-04-25T06:45:49;93691.19;;;21.45;50.31
10462;BME280;5278;42.656;23.374;2023-04-25T06:48:17;93767.34;;;22.14;49.34
10462;BME280;5278;42.656;23.374;2023-04-25T06:50:44;93768.94;;;22.20;48.74
10462;BME280;5278;42.656;23.374;2023-04-25T06:53:11;93778.72;;;22.20;48.90
10462;BME280;5278;42.656;23.374;2023-04-25T06:55:38;93776.31;;;22.23;48.42
10462;BME280;5278;42.656;23.374;2023-04-25T06:58:05;93690.66;;;21.64;48.52
10462;BME280;5278;42.656;23.374;2023-04-25T07:00:32;93767.88;;;22.21;48.13
10462;BME280;5278;42.656;23.374;2023-04-25T07:02:59;93766.53;;;22.19;48.10
10462;BME280;5278;42.656;23.374;2023-04-25T07:05:27;93758.59;;;22.24;47.36
10462;BME280;5278;42.656;23.374;2023-04-25T07:07:54;93773.91;;;22.32;46.98
10462;BME280;5278;42.656;23.374;2023-04-25T07:10:21;93764.91;;;22.38;46.92
10462;BME280;5278;42.656;23.374;2023-04-25T07:12:48;93770.50;;;22.31;46.85
10462;BME280;5278;42.656;23.374;2023-04-25T07:15:15;93760.16;;;22.45;46.00
10462;BME280;5278;42.656;23.374;2023-04-25T07:17:42;93765.69;;;22.49;45.99
10462;BME280;5278;42.656;23.374;2023-04-25T07:20:09;93766.50;;;22.39;46.01
10462;BME280;5278;42.656;23.374;2023-04-25T07:22:38;93765.16;;;22.37;46.69
10462;BME280;5278;42.656;23.374;2023-04-25T07:25:05;93771.56;;;22.36;46.41
10462;BME280;5278;42.656;23.374;2023-04-25T07:27:34;93785.31;;;22.27;46.76
10462;BME280;5278;42.656;23.374;2023-04-25T07:30:00;93767.31;;;22.29;46.86
10462;BME280;5278;42.656;23.374;2023-04-25T07:32:27;93771.81;;;22.39;46.39
10462;BME280;5278;42.656;23.374;2023-04-25T07:34:54;93769.38;;;22.58;45.95
10462;BME280;5278;42.656;23.374;2023-04-25T07:37:21;93766.69;;;22.63;45.46
10462;BME280;5278;42.656;23.374;2023-04-25T07:39:49;93759.09;;;22.46;46.02
10462;BME280;5278;42.656;23.374;2023-04-25T07:42:16;93762.47;;;22.57;47.30
10462;BME280;5278;42.656;23.374;2023-04-25T07:44:43;93763.09;;;22.18;48.03
10462;BME280;5278;42.656;23.374;2023-04-25T07:47:10;93754.94;;;22.05;48.54
10462;BME280;5278;42.656;23.374;2023-04-25T07:49:37;93757.56;;;21.74;49.00
10462;BME280;5278;42.656;23.374;2023-04-25T07:52:05;93760.19;;;21.44;50.38
10462;BME280;5278;42.656;23.374;2023-04-25T07:54:32;93757.22;;;21.15;50.31
10462;BME280;5278;42.656;23.374;2023-04-25T07:57:00;93751.03;;;20.84;51.11
10462;BME280;5278;42.656;23.374;2023-04-25T07:59:27;93758.34;;;20.62;52.35
10462;BME280;5278;42.656;23.374;2023-04-25T08:01:54;93753.97;;;20.36;54.19
10462;BME280;5278;42.656;23.374;2023-04-25T08:04:22;93742.03;;;20.28;54.40
10462;BME280;5278;42.656;23.374;2023-04-25T08:06:50;93751.63;;;20.39;54.50
10462;BME280;5278;42.656;23.374;2023-04-25T08:09:17;93748.03;;;20.60;53.67
10462;BME280;5278;42.656;23.374;2023-04-25T08:11:44;93722.63;;;21.17;51.64
10462;BME280;5278;42.656;23.374;2023-04-25T08:14:13;93742.38;;;22.56;47.77
10462;BME280;5278;42.656;23.374;2023-04-25T08:16:40;93747.75;;;23.54;44.69
10462;BME280;5278;42.656;23.374;2023-04-25T08:19:07;93584.75;;;23.94;42.24
10462;BME280;5278;42.656;23.374;2023-04-25T08:21:34;93736.91;;;26.75;37.78
10462;BME280;5278;42.656;23.374;2023-04-25T08:24:01;93717.72;;;28.08;35.36
10462;BME280;5278;42.656;23.374;2023-04-25T08:26:28;93724.91;;;28.52;33.95
10462;BME280;5278;42.656;23.374;2023-04-25T08:28:55;93723.53;;;29.03;32.74
10462;BME280;5278;42.656;23.374;2023-04-25T08:31:23;93718.91;;;28.86;32.43
10462;BME280;5278;42.656;23.374;2023-04-25T08:33:50;93718.75;;;28.52;31.98
10462;BME280;5278;42.656;23.374;2023-04-25T08:36:17;93714.34;;;28.16;33.66
10462;BME280;5278;42.656;23.374;2023-04-25T08:38:44;93709.28;;;27.70;34.39
10462;BME280;5278;42.656;23.374;2023-04-25T08:41:11;93718.31;;;27.25;35.17
10462;BME280;5278;42.656;23.374;2023-04-25T08:43:42;93710.06;;;26.72;36.83
10462;BME280;5278;42.656;23.374;2023-04-25T08:46:09;93724.66;;;26.33;36.99
10462;BME280;5278;42.656;23.374;2023-04-25T08:48:40;93740.28;;;26.21;38.53
10462;BME280;5278;42.656;23.374;2023-04-25T08:51:07;93747.72;;;25.92;38.71
10462;BME280;5278;42.656;23.374;2023-04-25T08:53:35;93726.53;;;25.49;42.04
10462;BME280;5278;42.656;23.374;2023-04-25T08:56:02;93639.63;;;24.46;40.74
10462;BME280;5278;42.656;23.374;2023-04-25T08:58:30;93724.81;;;25.58;38.34
10462;BME280;5278;42.656;23.374;2023-04-25T09:00:58;93730.88;;;27.60;37.29
10462;BME280;5278;42.656;23.374;2023-04-25T09:03:25;93654.06;;;28.89;34.62
10462;BME280;5278;42.656;23.374;2023-04-25T09:05:54;93713.53;;;30.03;32.96
10462;BME280;5278;42.656;23.374;2023-04-25T09:08:21;93699.19;;;29.73;32.63
10462;BME280;5278;42.656;23.374;2023-04-25T09:10:48;93696.81;;;29.80;32.35
10462;BME280;5278;42.656;23.374;2023-04-25T09:13:24;93708.34;;;30.91;32.48
10462;BME280;5278;42.656;23.374;2023-04-25T09:15:53;93708.69;;;31.40;31.19
10462;BME280;5278;42.656;23.374;2023-04-25T09:18:24;93696.75;;;30.23;31.71
10462;BME280;5278;42.656;23.374;2023-04-25T09:20:53;93695.72;;;29.47;32.48
10462;BME280;5278;42.656;23.374;2023-04-25T09:23:21;93700.53;;;29.10;32.99
10462;BME280;5278;42.656;23.374;2023-04-25T09:25:50;93691.88;;;27.73;35.17
10462;BME280;5278;42.656;23.374;2023-04-25T09:28:23;93627.56;;;26.53;36.80
10462;BME280;5278;42.656;23.374;2023-04-25T09:30:55;93696.13;;;26.20;37.31
10462;BME280;5278;42.656;23.374;2023-04-25T09:33:27;93696.78;;;25.10;39.94
10462;BME280;5278;42.656;23.374;2023-04-25T09:36:02;93701.53;;;24.23;42.46
10462;BME280;5278;42.656;23.374;2023-04-25T09:38:30;93706.81;;;23.65;43.68
10462;BME280;5278;42.656;23.374;2023-04-25T09:40:57;93702.09;;;23.13;44.93
10462;BME280;5278;42.656;23.374;2023-04-25T09:43:26;93708.41;;;22.73;46.91
10462;BME280;5278;42.656;23.374;2023-04-25T09:45:54;93700.66;;;22.87;47.44
10462;BME280;5278;42.656;23.374;2023-04-25T09:48:25;93695.78;;;23.09;48.45
10462;BME280;5278;42.656;23.374;2023-04-25T09:51:08;93698.59;;;23.23;48.22
10462;BME280;5278;42.656;23.374;2023-04-25T09:53:37;93694.94;;;23.13;48.29
10462;BME280;5278;42.656;23.374;2023-04-25T09:56:05;93699.13;;;23.25;47.99
10462;BME280;5278;42.656;23.374;2023-04-25T09:58:33;93673.44;;;23.59;47.00
10462;BME280;5278;42.656;23.374;2023-04-25T10:01:01;93692.50;;;24.24;44.83
10462;BME280;5278;42.656;23.374;2023-04-25T10:03:30;93698.13;;;24.41;43.11
10462;BME280;5278;42.656;23.374;2023-04-25T10:05:59;93697.47;;;24.30;43.81
10462;BME280;5278;42.656;23.374;2023-04-25T10:08:31;93691.25;;;24.11;45.07
10462;BME280;5278;42.656;23.374;2023-04-25T10:11:00;93686.63;;;23.98;45.66
10462;BME280;5278;42.656;23.374;2023-04-25T10:13:29;93687.88;;;24.06;45.20
10462;BME280;5278;42.656;23.374;2023-04-25T10:15:57;93681.53;;;24.01;46.48
10462;BME280;5278;42.656;23.374;2023-04-25T10:18:25;93686.47;;;23.84;46.41
10462;BME280;5278;42.656;23.374;2023-04-25T10:20:53;93679.81;;;23.87;46.81
10462;BME280;5278;42.656;23.374;2023-04-25T10:23:20;93691.97;;;23.64;46.82
10462;BME280;5278;42.656;23.374;2023-04-25T10:25:49;93693.06;;;23.87;47.47
10462;BME280;5278;42.656;23.374;2023-04-25T10:28:17;93704.34;;;24.02;48.17
10462;BME280;5278;42.656;23.374;2023-04-25T10:30:58;93693.28;;;23.95;48.57
10462;BME280;5278;42.656;23.374;2023-04-25T10:33:35;93689.25;;;23.98;48.29
10462;BME280;5278;42.656;23.374;2023-04-25T10:36:12;93683.19;;;25.30;45.03
10462;BME280;5278;42.656;23.374;2023-04-25T10:38:39;93687.50;;;27.55;39.63
10462;BME280;5278;42.656;23.374;2023-04-25T10:41:09;93673.13;;;28.88;36.31
10462;BME280;5278;42.656;23.374;2023-04-25T10:43:37;93666.09;;;29.52;34.80
10462;BME280;5278;42.656;23.374;2023-04-25T10:46:18;93666.19;;;31.21;30.95
10462;BME280;5278;42.656;23.374;2023-04-25T10:48:47;93673.53;;;32.07;29.51
10462;BME280;5278;42.656;23.374;2023-04-25T10:51:25;93689.81;;;31.48;31.41
10462;BME280;5278;42.656;23.374;2023-04-25T10:53:59;93669.13;;;29.33;32.47
10462;BME280;5278;42.656;23.374;2023-04-25T10:56:29;93681.59;;;27.08;36.64
10462;BME280;5278;42.656;23.374;2023-04-25T10:59:10;93622.56;;;25.92;39.79
10462;BME280;5278;42.656;23.374;2023-04-25T11:01:39;93693.38;;;25.42;37.63
10462;BME280;5278;42.656;23.374;2023-04-25T11:04:06;93692.66;;;24.32;40.64
10462;BME280;5278;42.656;23.374;2023-04-25T11:06:54;93675.28;;;23.87;46.52
10462;BME280;5278;42.656;23.374;2023-04-25T11:09:24;93688.97;;;23.76;45.56
10462;BME280;5278;42.656;23.374;2023-04-25T11:11:55;93682.66;;;23.95;45.96
10462;BME280;5278;42.656;23.374;2023-04-25T11:14:22;93679.44;;;24.27;43.51
10462;BME280;5278;42.656;23.374;2023-04-25T11:16:52;93678.03;;;24.77;43.28
10462;BME280;5278;42.656;23.374;2023-04-25T11:19:20;93675.28;;;24.88;43.61
10462;BME280;5278;42.656;23.374;2023-04-25T11:21:47;93680.69;;;25.20;41.00
10462;BME280;5278;42.656;23.374;2023-04-25T11:24:14;93671.78;;;26.54;38.61
10462;BME280;5278;42.656;23.374;2023-04-25T11:26:41;93658.94;;;26.70;36.73
10462;BME280;5278;42.656;23.374;2023-04-25T11:29:10;93671.28;;;25.79;37.25
10462;BME280;5278;42.656;23.374;2023-04-25T11:31:37;93672.53;;;24.50;41.14
10462;BME280;5278;42.656;23.374;2023-04-25T11:34:04;93671.16;;;24.05;43.40
10462;BME280;5278;42.656;23.374;2023-04-25T11:36:31;93695.31;;;23.46;45.96
10462;BME280;5278;42.656;23.374;2023-04-25T11:38:57;93666.84;;;23.12;46.80
10462;BME280;5278;42.656;23.374;2023-04-25T11:41:25;93675.25;;;22.86;48.33
10462;BME280;5278;42.656;23.374;2023-04-25T11:43:52;93673.09;;;22.28;50.04
10462;BME280;5278;42.656;23.374;2023-04-25T11:46:21;93681.06;;;22.18;51.70
10462;BME280;5278;42.656;23.374;2023-04-25T11:48:48;93686.13;;;22.00;51.81
10462;BME280;5278;42.656;23.374;2023-04-25T11:51:15;93693.00;;;21.85;52.66
10462;BME280;5278;42.656;23.374;2023-04-25T11:53:44;93705.94;;;21.87;53.57
10462;BME280;5278;42.656;23.374;2023-04-25T11:56:12;93701.47;;;21.72;53.52
10462;BME280;5278;42.656;23.374;2023-04-25T11:58:54;93699.13;;;21.66;51.56
10462;BME280;5278;42.656;23.374;2023-04-25T12:01:27;93681.66;;;21.50;51.84
10462;BME280;5278;42.656;23.374;2023-04-25T12:03:54;93700.72;;;21.36;50.89
10462;BME280;5278;42.656;23.374;2023-04-25T12:06:23;93682.94;;;21.07;54.37
10462;BME280;5278;42.656;23.374;2023-04-25T12:09:02;93646.97;;;20.75;55.03
10462;BME280;5278;42.656;23.374;2023-04-25T12:11:30;93677.16;;;21.55;54.15
10462;BME280;5278;42.656;23.374;2023-04-25T12:14:02;93660.41;;;22.20;51.46
10462;BME280;5278;42.656;23.374;2023-04-25T12:16:40;93669.50;;;22.63;48.46
10462;BME280;5278;42.656;23.374;2023-04-25T12:19:07;93659.25;;;22.47;47.63
10462;BME280;5278;42.656;23.374;2023-04-25T12:21:33;93682.00;;;22.53;48.66
10462;BME280;5278;42.656;23.374;2023-04-25T12:24:09;93652.47;;;22.85;48.47
10462;BME280;5278;42.656;23.374;2023-04-25T12:26:50;93623.47;;;23.03;46.90
10462;BME280;5278;42.656;23.374;2023-04-25T12:29:20;93651.88;;;23.32;44.17
10462;BME280;5278;42.656;23.374;2023-04-25T12:31:48;93652.91;;;23.36;43.86
10462;BME280;5278;42.656;23.374;2023-04-25T12:34:16;93650.09;;;23.22;45.14
10462;BME280;5278;42.656;23.374;2023-04-25T12:36:43;93655.84;;;23.34;45.33
10462;BME280;5278;42.656;23.374;2023-04-25T12:39:14;93652.88;;;23.46;45.16
10462;BME280;5278;42.656;23.374;2023-04-25T12:41:41;93669.91;;;23.69;44.32
10462;BME280;5278;42.656;23.374;2023-04-25T12:44:08;93691.84;;;23.40;47.08
10462;BME280;5278;42.656;23.374;2023-04-25T12:46:35;93699.09;;;22.06;48.52
10462;BME280;5278;42.656;23.374;2023-04-25T12:49:03;93569.34;;;20.71;51.50
10462;BME280;5278;42.656;23.374;2023-04-25T12:51:31;93717.88;;;21.54;51.91
10462;BME280;5278;42.656;23.374;2023-04-25T12:54:01;93715.38;;;20.82;54.98
10462;BME280;5278;42.656;23.374;2023-04-25T12:56:28;93718.38;;;20.43;57.39
10462;BME280;5278;42.656;23.374;2023-04-25T12:58:55;93721.28;;;20.37;58.79
10462;BME280;5278;42.656;23.374;2023-04-25T13:01:22;93724.06;;;20.77;57.62